createdAt,value
2018-04-11T00:00:58.828Z,10.88
2018-04-11T00:02:09.011Z,10.84
2018-04-11T00:03:19.164Z,10.8
2018-04-11T00:04:29.315Z,10.85
2018-04-11T00:05:39.474Z,10.88
2018-04-11T00:06:49.662Z,10.9
2018-04-11T00:07:59.835Z,10.9
2018-04-11T00:09:09.974Z,10.91
2018-04-11T00:10:20.123Z,10.85
2018-04-11T00:11:30.389Z,10.92
2018-04-11T00:12:40.558Z,10.92
2018-04-11T00:13:50.845Z,10.91
2018-04-11T00:15:00.722Z,10.95
2018-04-11T00:16:10.895Z,10.95
2018-04-11T00:17:21.091Z,10.87
2018-04-11T00:18:31.248Z,10.88
2018-04-11T00:19:41.405Z,10.85
2018-04-11T00:20:51.663Z,10.84
2018-04-11T00:22:01.836Z,10.85
2018-04-11T00:23:12.101Z,10.8
2018-04-11T00:24:22.298Z,10.88
2018-04-11T00:25:32.523Z,10.83
2018-04-11T00:26:42.753Z,10.88
2018-04-11T00:27:52.703Z,10.83
2018-04-11T00:29:02.874Z,10.87
2018-04-11T00:30:13.036Z,10.85
2018-04-11T00:31:23.190Z,10.88
2018-04-11T00:32:33.408Z,10.88
2018-04-11T00:33:43.570Z,10.87
2018-04-11T00:34:53.906Z,10.91
2018-04-11T00:36:04.195Z,10.87
2018-04-11T00:37:14.396Z,10.85
2018-04-11T00:38:24.581Z,10.88
2018-04-11T00:39:34.839Z,10.87
2018-04-11T00:40:45.033Z,10.84
2018-04-11T00:41:55.237Z,10.8
2018-04-11T00:43:05.417Z,10.75
2018-04-11T00:44:15.624Z,10.75
2018-04-11T00:45:25.846Z,10.75
2018-04-11T00:46:37.023Z,10.73
2018-04-11T00:47:46.904Z,10.7
2018-04-11T00:48:57.054Z,10.63
2018-04-11T00:50:07.285Z,10.55
2018-04-11T00:51:17.435Z,10.61
2018-04-11T00:52:27.354Z,10.57
2018-04-11T00:53:37.723Z,10.61
2018-04-11T00:54:47.921Z,10.54
2018-04-11T00:55:58.314Z,10.61
2018-04-11T00:57:08.475Z,10.54
2018-04-11T00:58:18.740Z,10.55
2018-04-11T00:59:28.923Z,10.51
2018-04-11T01:00:39.083Z,10.51
2018-04-11T01:01:49.312Z,10.54
2018-04-11T01:02:59.223Z,10.57
2018-04-11T01:04:09.503Z,10.42
2018-04-11T01:05:19.693Z,10.4
2018-04-11T01:06:29.855Z,10.47
2018-04-11T01:07:40.029Z,10.48
2018-04-11T01:08:50.196Z,10.39
2018-04-11T01:10:00.366Z,10.51
2018-04-11T01:11:10.722Z,10.54
2018-04-11T01:12:20.921Z,10.54
2018-04-11T01:13:31.135Z,10.52
2018-04-11T01:14:41.460Z,10.48
2018-04-11T01:15:51.705Z,10.47
2018-04-11T01:17:01.857Z,10.48
2018-04-11T01:18:12.040Z,10.5
2018-04-11T01:19:22.220Z,10.54
2018-04-11T01:20:32.495Z,10.52
2018-04-11T01:21:42.678Z,10.47
2018-04-11T01:22:52.934Z,10.47
2018-04-11T01:24:03.119Z,10.39
2018-04-11T01:25:13.426Z,10.5
2018-04-11T01:26:23.636Z,10.48
2018-04-11T01:27:33.786Z,10.45
2018-04-11T01:28:44.068Z,10.48
2018-04-11T01:29:54.337Z,10.5
2018-04-11T01:31:04.505Z,10.45
2018-04-11T01:32:14.690Z,10.37
2018-04-11T01:33:24.877Z,10.5
2018-04-11T01:34:35.169Z,10.48
2018-04-11T01:35:45.329Z,10.55
2018-04-11T01:36:55.679Z,10.58
2018-04-11T01:38:05.855Z,10.59
2018-04-11T01:39:16.189Z,10.61
2018-04-11T01:40:26.327Z,10.57
2018-04-11T01:41:36.527Z,10.61
2018-04-11T01:42:46.736Z,10.66
2018-04-11T01:43:56.947Z,10.69
2018-04-11T01:45:07.156Z,10.69
2018-04-11T01:46:17.504Z,10.67
2018-04-11T01:47:27.668Z,10.75
2018-04-11T01:48:37.813Z,10.59
2018-04-11T01:49:48.073Z,10.57
2018-04-11T01:50:58.262Z,10.55
2018-04-11T01:52:08.179Z,10.59
2018-04-11T01:53:18.306Z,10.58
2018-04-11T01:54:29.576Z,10.55
2018-04-11T01:55:39.726Z,10.55
2018-04-11T01:56:49.886Z,10.61
2018-04-11T01:58:00.048Z,10.58
2018-04-11T01:59:10.268Z,10.55
2018-04-11T02:00:20.504Z,10.59
2018-04-11T02:01:30.721Z,10.57
2018-04-11T02:02:40.866Z,10.54
2018-04-11T02:03:50.828Z,10.58
2018-04-11T02:05:00.701Z,10.55
2018-04-11T02:06:10.825Z,10.57
2018-04-11T02:07:21.006Z,10.57
2018-04-11T02:08:31.213Z,10.51
2018-04-11T02:09:41.185Z,10.58
2018-04-11T02:10:51.417Z,10.58
2018-04-11T02:12:01.606Z,10.59
2018-04-11T02:13:11.976Z,10.59
2018-04-11T02:14:21.816Z,10.61
2018-04-11T02:15:32.004Z,10.58
2018-04-11T02:16:41.924Z,10.69
2018-04-11T02:17:52.074Z,10.69
2018-04-11T02:19:02.225Z,10.67
2018-04-11T02:20:12.377Z,10.59
2018-04-11T02:21:22.693Z,10.61
2018-04-11T02:22:32.852Z,10.58
2018-04-11T02:23:43.005Z,10.63
2018-04-11T02:24:53.286Z,10.57
2018-04-11T02:26:03.441Z,10.57
2018-04-11T02:27:13.590Z,10.63
2018-04-11T02:28:23.784Z,10.58
2018-04-11T02:29:33.951Z,10.55
2018-04-11T02:30:44.111Z,10.57
2018-04-11T02:31:54.261Z,10.54
2018-04-11T02:33:04.507Z,10.54
2018-04-11T02:34:14.722Z,10.52
2018-04-11T02:35:24.868Z,10.51
2018-04-11T02:36:34.754Z,10.51
2018-04-11T02:37:44.660Z,10.45
2018-04-11T02:38:54.853Z,10.52
2018-04-11T02:40:05.035Z,10.5
2018-04-11T02:41:15.198Z,10.52
2018-04-11T02:42:25.192Z,10.48
2018-04-11T02:43:35.407Z,10.54
2018-04-11T02:44:45.631Z,10.51
2018-04-11T02:45:55.917Z,10.48
2018-04-11T02:47:06.106Z,10.45
2018-04-11T02:48:16.248Z,10.4
2018-04-11T02:49:25.857Z,10.45
2018-04-11T02:50:36.010Z,10.45
2018-04-11T02:51:46.156Z,10.33
2018-04-11T02:52:56.296Z,10.47
2018-04-11T02:54:06.387Z,10.33
2018-04-11T02:55:16.817Z,10.24
2018-04-11T02:56:26.948Z,10.21
2018-04-11T02:57:37.105Z,10.37
2018-04-11T02:58:47.263Z,10.29
2018-04-11T02:59:57.466Z,10.26
2018-04-11T03:01:07.699Z,10.29
2018-04-11T03:02:17.958Z,10.33
2018-04-11T03:03:27.840Z,10.36
2018-04-11T03:04:37.726Z,10.27
2018-04-11T03:05:47.872Z,10.33
2018-04-11T03:06:58.017Z,10.22
2018-04-11T03:08:08.160Z,10.33
2018-04-11T03:09:18.329Z,10.34
2018-04-11T03:10:28.590Z,10.37
2018-04-11T03:11:38.781Z,10.34
2018-04-11T03:12:48.930Z,10.32
2018-04-11T03:13:59.224Z,10.36
2018-04-11T03:15:09.483Z,10.32
2018-04-11T03:16:19.347Z,10.24
2018-04-11T03:17:29.485Z,10.39
2018-04-11T03:18:39.611Z,10.27
2018-04-11T03:19:49.744Z,10.29
2018-04-11T03:20:59.945Z,10.33
2018-04-11T03:22:09.867Z,10.32
2018-04-11T03:23:19.495Z,10.27
2018-04-11T03:24:29.220Z,10.36
2018-04-11T03:25:39.431Z,10.27
2018-04-11T03:26:49.775Z,10.29
2018-04-11T03:27:59.938Z,10.32
2018-04-11T03:29:10.101Z,10.32
2018-04-11T03:30:20.349Z,10.21
2018-04-11T03:31:30.559Z,10.32
2018-04-11T03:32:40.792Z,10.27
2018-04-11T03:33:50.943Z,10.32
2018-04-11T03:35:01.161Z,10.29
2018-04-11T03:36:11.376Z,10.3
2018-04-11T03:37:21.534Z,10.36
2018-04-11T03:38:31.919Z,10.33
2018-04-11T03:39:42.143Z,10.3
2018-04-11T03:40:52.304Z,10.3
2018-04-11T03:42:02.600Z,10.32
2018-04-11T03:43:12.830Z,10.3
2018-04-11T03:44:22.965Z,10.27
2018-04-11T03:45:33.132Z,10.3
2018-04-11T03:46:43.485Z,10.26
2018-04-11T03:47:53.746Z,10.24
2018-04-11T03:49:03.638Z,10.26
2018-04-11T03:50:13.558Z,10.27
2018-04-11T03:51:23.727Z,10.34
2018-04-11T03:52:33.847Z,10.26
2018-04-11T03:53:43.819Z,10.27
2018-04-11T03:54:54.074Z,10.34
2018-04-11T03:56:04.346Z,10.29
2018-04-11T03:57:14.470Z,10.33
2018-04-11T03:58:24.651Z,10.33
2018-04-11T03:59:34.883Z,10.17
2018-04-11T04:00:45.128Z,10.17
2018-04-11T04:01:55.356Z,10.1
2018-04-11T04:03:05.573Z,10.08
2018-04-11T04:04:15.460Z,10.15
2018-04-11T04:05:25.676Z,10.19
2018-04-11T04:06:35.829Z,10.11
2018-04-11T04:07:45.832Z,10.18
2018-04-11T04:08:56.076Z,10.22
2018-04-11T04:10:06.307Z,10.17
2018-04-11T04:11:16.462Z,10.03
2018-04-11T04:12:26.636Z,10
2018-04-11T04:13:36.799Z,10.03
2018-04-11T04:14:46.986Z,10.08
2018-04-11T04:15:57.127Z,10.21
2018-04-11T04:17:06.987Z,10.13
2018-04-11T04:18:17.127Z,10.15
2018-04-11T04:19:27.275Z,10.19
2018-04-11T04:20:37.423Z,10.21
2018-04-11T04:21:47.644Z,10.19
2018-04-11T04:22:57.824Z,10.15
2018-04-11T04:24:07.957Z,10.18
2018-04-11T04:25:18.100Z,10.18
2018-04-11T04:26:28.229Z,10.21
2018-04-11T04:27:38.364Z,10.17
2018-04-11T04:28:48.523Z,10.19
2018-04-11T04:29:58.712Z,10.21
2018-04-11T04:31:08.870Z,10.27
2018-04-11T04:32:19.131Z,10.33
2018-04-11T04:33:29.314Z,10.29
2018-04-11T04:34:39.463Z,10.24
2018-04-11T04:35:49.615Z,10.3
2018-04-11T04:36:59.750Z,10.32
2018-04-11T04:38:09.922Z,10.3
2018-04-11T04:39:20.074Z,10.36
2018-04-11T04:40:30.222Z,10.3
2018-04-11T04:41:40.410Z,10.32
2018-04-11T04:42:50.675Z,10.27
2018-04-11T04:44:00.921Z,10.33
2018-04-11T04:45:11.142Z,10.34
2018-04-11T04:46:21.341Z,10.26
2018-04-11T04:47:31.202Z,10.32
2018-04-11T04:48:41.412Z,10.36
2018-04-11T04:49:51.566Z,10.39
2018-04-11T04:51:01.825Z,10.3
2018-04-11T04:52:12.044Z,10.3
2018-04-11T04:53:22.253Z,10.36
2018-04-11T04:54:32.434Z,10.32
2018-04-11T04:55:42.682Z,10.33
2018-04-11T04:56:52.852Z,10.39
2018-04-11T04:58:02.737Z,10.37
2018-04-11T04:59:12.891Z,10.36
2018-04-11T05:00:23.059Z,10.37
2018-04-11T05:01:33.208Z,10.43
2018-04-11T05:02:43.198Z,10.47
2018-04-11T05:03:53.402Z,10.47
2018-04-11T05:05:03.544Z,10.51
2018-04-11T05:06:13.450Z,10.57
2018-04-11T05:07:23.619Z,10.57
2018-04-11T05:08:33.264Z,10.55
2018-04-11T05:09:42.886Z,10.52
2018-04-11T05:10:53.216Z,10.58
2018-04-11T05:12:03.360Z,10.65
2018-04-11T05:13:13.535Z,10.57
2018-04-11T05:14:23.695Z,10.57
2018-04-11T05:15:33.932Z,10.55
2018-04-11T05:16:44.106Z,10.51
2018-04-11T05:17:54.242Z,10.52
2018-04-11T05:19:04.607Z,10.52
2018-04-11T05:20:14.777Z,10.52
2018-04-11T05:21:25.025Z,10.58
2018-04-11T05:22:35.307Z,10.52
2018-04-11T05:23:45.589Z,10.54
2018-04-11T05:24:55.758Z,10.51
2018-04-11T05:26:05.642Z,10.5
2018-04-11T05:27:15.896Z,10.36
2018-04-11T05:28:26.250Z,10.43
2018-04-11T05:29:36.387Z,10.45
2018-04-11T05:30:46.561Z,10.42
2018-04-11T05:31:56.734Z,10.42
2018-04-11T05:33:06.889Z,10.57
2018-04-11T05:34:17.066Z,10.61
2018-04-11T05:35:27.300Z,10.63
2018-04-11T05:36:37.512Z,10.55
2018-04-11T05:37:47.658Z,10.51
2018-04-11T05:38:57.923Z,10.51
2018-04-11T05:40:08.209Z,10.55
2018-04-11T05:41:18.386Z,10.59
2018-04-11T05:42:28.591Z,10.54
2018-04-11T05:43:38.759Z,10.57
2018-04-11T05:44:49.008Z,10.54
2018-04-11T05:45:58.886Z,10.51
2018-04-11T05:47:09.026Z,10.59
2018-04-11T05:48:18.948Z,10.57
2018-04-11T05:49:29.091Z,10.54
2018-04-11T05:50:39.236Z,10.59
2018-04-11T05:51:49.380Z,10.57
2018-04-11T05:52:59.333Z,10.57
2018-04-11T05:54:09.246Z,10.54
2018-04-11T05:55:19.547Z,10.55
2018-04-11T05:56:29.762Z,10.54
2018-04-11T05:57:39.925Z,10.48
2018-04-11T05:58:50.244Z,10.4
2018-04-11T06:00:00.367Z,10.48
2018-04-11T06:01:10.591Z,10.47
2018-04-11T06:02:20.582Z,10.43
2018-04-11T06:03:30.123Z,10.4
2018-04-11T06:04:40.310Z,10.34
2018-04-11T06:05:50.467Z,10.34
2018-04-11T06:07:00.816Z,10.24
2018-04-11T06:08:10.959Z,10.26
2018-04-11T06:09:21.113Z,10.32
2018-04-11T06:10:31.338Z,10.24
2018-04-11T06:11:41.582Z,10.37
2018-04-11T06:12:51.895Z,10.32
2018-04-11T06:14:02.070Z,10.39
2018-04-11T06:15:12.231Z,10.34
2018-04-11T06:16:22.365Z,10.36
2018-04-11T06:17:32.520Z,10.34
2018-04-11T06:18:42.678Z,10.36
2018-04-11T06:19:52.906Z,10.39
2018-04-11T06:21:03.057Z,10.34
2018-04-11T06:22:13.208Z,10.45
2018-04-11T06:23:23.388Z,10.45
2018-04-11T06:24:33.699Z,10.48
2018-04-11T06:25:43.857Z,10.51
2018-04-11T06:26:54.184Z,10.54
2018-04-11T06:28:04.433Z,10.5
2018-04-11T06:29:14.722Z,10.45
2018-04-11T06:30:24.876Z,10.5
2018-04-11T06:31:35.061Z,10.48
2018-04-11T06:32:45.277Z,10.52
2018-04-11T06:33:55.536Z,10.55
2018-04-11T06:35:05.871Z,10.54
2018-04-11T06:36:16.078Z,10.4
2018-04-11T06:37:26.259Z,10.4
2018-04-11T06:38:36.396Z,10.39
2018-04-11T06:39:46.365Z,10.45
2018-04-11T06:40:56.542Z,10.45
2018-04-11T06:42:06.759Z,10.47
2018-04-11T06:43:17.012Z,10.58
2018-04-11T06:44:27.174Z,10.55
2018-04-11T06:45:37.355Z,10.63
2018-04-11T06:46:47.537Z,10.67
2018-04-11T06:47:57.710Z,10.72
2018-04-11T06:49:07.894Z,10.72
2018-04-11T06:50:18.061Z,10.63
2018-04-11T06:51:28.263Z,10.69
2018-04-11T06:52:38.482Z,10.73
2018-04-11T06:53:48.645Z,10.76
2018-04-11T06:54:58.818Z,10.83
2018-04-11T06:56:08.982Z,10.88
2018-04-11T06:57:18.920Z,10.9
2018-04-11T06:58:29.116Z,11.03
2018-04-11T06:59:39.411Z,11.09
2018-04-11T07:00:49.635Z,11.12
2018-04-11T07:01:59.530Z,11.12
2018-04-11T07:03:09.751Z,11.24
2018-04-11T07:04:19.923Z,11.31
2018-04-11T07:05:30.063Z,11.39
2018-04-11T07:06:40.289Z,11.42
2018-04-11T07:07:50.481Z,11.38
2018-04-11T07:09:00.706Z,11.42
2018-04-11T07:10:10.867Z,11.38
2018-04-11T07:11:21.047Z,11.39
2018-04-11T07:12:32.532Z,11.45
2018-04-11T07:13:42.678Z,11.42
2018-04-11T07:14:52.826Z,11.43
2018-04-11T07:16:02.978Z,11.43
2018-04-11T07:17:13.142Z,11.34
2018-04-11T07:18:23.295Z,11.39
2018-04-11T07:19:33.588Z,11.58
2018-04-11T07:20:43.503Z,11.66
2018-04-11T07:21:53.662Z,11.74
2018-04-11T07:23:03.834Z,11.87
2018-04-11T07:24:14.015Z,11.89
2018-04-11T07:25:26.990Z,12.04
2018-04-11T07:26:37.138Z,12.17
2018-04-11T07:27:47.309Z,12.2
2018-04-11T07:28:57.467Z,12.15
2018-04-11T07:30:07.885Z,12.27
2018-04-11T07:31:19.515Z,12.24
2018-04-11T07:32:29.665Z,12.19
2018-04-11T07:33:41.074Z,12.22
2018-04-11T07:34:51.045Z,12.24
2018-04-11T07:37:15.089Z,12.44
2018-04-11T07:38:25.241Z,12.47
2018-04-11T07:40:50.350Z,12.59
2018-04-11T07:42:00.597Z,12.63
2018-04-11T07:43:43.941Z,12.82
2018-04-11T07:47:24.292Z,13.08
2018-04-11T07:48:34.490Z,13.12
2018-04-11T07:49:44.653Z,13.27
2018-04-11T07:50:54.808Z,13.37
2018-04-11T07:52:04.974Z,13.52
2018-04-11T07:53:15.154Z,13.56
2018-04-11T07:54:25.300Z,13.54
2018-04-11T07:55:35.585Z,13.46
2018-04-11T07:56:45.730Z,13.38
2018-04-11T07:57:55.990Z,13.37
2018-04-11T07:59:06.142Z,13.37
2018-04-11T08:00:16.296Z,13.36
2018-04-11T08:01:26.556Z,13.3
2018-04-11T08:03:52.323Z,13.51
2018-04-11T08:05:02.491Z,13.48
2018-04-11T08:06:13.260Z,13.4
2018-04-11T08:09:55.928Z,13.41
2018-04-11T08:11:06.244Z,13.31
2018-04-11T08:12:16.495Z,13.23
2018-04-11T08:13:26.688Z,13.21
2018-04-11T08:14:36.852Z,13.22
2018-04-11T08:15:47.058Z,13.31
2018-04-11T08:16:57.247Z,13.54
2018-04-11T08:18:07.393Z,14.14
2018-04-11T08:19:17.646Z,14.54
2018-04-11T08:20:27.843Z,14.87
2018-04-11T08:21:37.988Z,14.91
2018-04-11T08:22:48.181Z,15.03
2018-04-11T08:23:58.337Z,15.54
2018-04-11T08:25:08.595Z,15.98
2018-04-11T08:26:18.736Z,16.43
2018-04-11T08:27:28.982Z,16.62
2018-04-11T08:28:39.199Z,16.43
2018-04-11T08:29:49.477Z,16.21
2018-04-11T08:30:59.756Z,16.25
2018-04-11T08:32:09.912Z,16.51
2018-04-11T08:33:20.120Z,17.02
2018-04-11T08:34:30.310Z,17.58
2018-04-11T08:35:40.467Z,18.13
2018-04-11T08:36:50.717Z,18.57
2018-04-11T08:38:00.943Z,19.05
2018-04-11T08:39:10.847Z,19.46
2018-04-11T08:40:21.021Z,19.64
2018-04-11T08:41:31.205Z,20.04
2018-04-11T08:42:41.411Z,20.2
2018-04-11T08:43:51.567Z,20.34
2018-04-11T08:45:01.731Z,20.56
2018-04-11T08:46:12.051Z,20.82
2018-04-11T08:47:22.034Z,21.18
2018-04-11T08:48:32.296Z,21.03
2018-04-11T08:49:42.459Z,21.09
2018-04-11T08:50:52.607Z,21.12
2018-04-11T08:52:02.773Z,20.78
2018-04-11T08:53:12.665Z,20.36
2018-04-11T08:54:22.865Z,20.2
2018-04-11T08:55:33.017Z,19.97
2018-04-11T08:56:43.224Z,19.95
2018-04-11T08:57:53.389Z,19.65
2018-04-11T08:59:03.605Z,19.18
2018-04-11T09:00:13.799Z,18.95
2018-04-11T09:01:24.010Z,19.05
2018-04-11T09:02:34.149Z,18.73
2018-04-11T09:03:44.094Z,18.47
2018-04-11T09:04:54.260Z,18.62
2018-04-11T09:06:04.417Z,18.57
2018-04-11T09:07:14.601Z,18.87
2018-04-11T09:08:24.864Z,19.21
2018-04-11T09:09:35.044Z,19.58
2018-04-11T09:10:45.295Z,19.9
2018-04-11T09:11:55.518Z,20.3
2018-04-11T09:13:05.727Z,20.28
2018-04-11T09:15:31.768Z,19.92
2018-04-11T09:16:44.412Z,19.68
2018-04-11T09:17:55.820Z,19.39
2018-04-11T09:19:08.731Z,19.18
2018-04-11T09:21:37.643Z,18.69
2018-04-11T09:22:49.214Z,18.37
2018-04-11T09:23:59.441Z,18.28
2018-04-11T09:25:09.625Z,18
2018-04-11T09:26:19.794Z,17.73
2018-04-11T09:27:29.983Z,17.43
2018-04-11T09:28:40.126Z,17.21
2018-04-11T09:29:50.294Z,17.09
2018-04-11T09:31:00.463Z,16.99
2018-04-11T09:32:10.649Z,16.87
2018-04-11T09:33:20.941Z,16.84
2018-04-11T09:34:32.138Z,16.8
2018-04-11T09:35:42.305Z,16.87
2018-04-11T09:36:52.503Z,16.91
2018-04-11T09:38:02.400Z,16.98
2018-04-11T09:39:12.560Z,17.02
2018-04-11T09:40:22.563Z,17.01
2018-04-11T09:41:32.739Z,17.05
2018-04-11T09:42:43.010Z,17.11
2018-04-11T09:43:53.154Z,17.09
2018-04-11T09:45:03.362Z,17.14
2018-04-11T09:46:13.497Z,17.09
2018-04-11T09:47:23.681Z,17.01
2018-04-11T09:48:33.893Z,16.93
2018-04-11T09:49:44.060Z,16.82
2018-04-11T09:50:54.223Z,16.75
2018-04-11T09:52:04.467Z,16.69
2018-04-11T09:53:14.626Z,16.69
2018-04-11T09:54:24.527Z,16.71
2018-04-11T09:55:34.692Z,16.82
2018-04-11T09:56:44.845Z,17.28
2018-04-11T09:57:55.036Z,17.61
2018-04-11T09:59:05.200Z,17.95
2018-04-11T10:00:15.354Z,18.35
2018-04-11T10:01:25.559Z,18.5
2018-04-11T10:02:35.725Z,18.69
2018-04-11T10:03:45.924Z,18.78
2018-04-11T10:04:56.080Z,18.73
2018-04-11T10:06:06.250Z,18.59
2018-04-11T10:07:16.401Z,18.59
2018-04-11T10:08:26.598Z,18.37
2018-04-11T10:09:36.802Z,18.12
2018-04-11T10:10:46.711Z,17.91
2018-04-11T10:11:56.329Z,17.61
2018-04-11T10:13:06.220Z,17.49
2018-04-11T10:14:16.433Z,17.58
2018-04-11T10:15:27.832Z,17.5
2018-04-11T10:16:41.467Z,17.46
2018-04-11T10:17:53.579Z,17.27
2018-04-11T10:19:03.601Z,17.36
2018-04-11T10:20:13.917Z,17.39
2018-04-11T10:21:24.116Z,17.73
2018-04-11T10:22:34.902Z,18.12
2018-04-11T10:26:15.207Z,18.6
2018-04-11T10:27:26.230Z,18.62
2018-04-11T10:28:36.419Z,18.69
2018-04-11T10:29:46.666Z,18.59
2018-04-11T10:30:56.875Z,18.62
2018-04-11T10:32:06.733Z,18.49
2018-04-11T10:33:16.875Z,18.25
2018-04-11T10:34:27.098Z,18.13
2018-04-11T10:35:37.272Z,18.09
2018-04-11T10:36:47.453Z,18.02
2018-04-11T10:37:57.359Z,18.09
2018-04-11T10:39:07.525Z,18.12
2018-04-11T10:40:17.669Z,18.41
2018-04-11T10:41:27.611Z,18.4
2018-04-11T10:42:37.807Z,18.56
2018-04-11T10:43:48.000Z,18.71
2018-04-11T10:44:58.181Z,18.9
2018-04-11T10:46:08.449Z,19.18
2018-04-11T10:47:18.669Z,19.5
2018-04-11T10:48:28.887Z,19.58
2018-04-11T10:49:39.106Z,19.33
2018-04-11T10:50:49.275Z,19.3
2018-04-11T10:52:01.117Z,19.37
2018-04-11T10:54:30.585Z,19.33
2018-04-11T10:56:55.926Z,19
2018-04-11T10:58:07.351Z,18.69
2018-04-11T10:59:18.451Z,18.44
2018-04-11T11:00:28.651Z,18.3
2018-04-11T11:01:38.864Z,18.12
2018-04-11T11:02:49.095Z,18.01
2018-04-11T11:03:59.261Z,17.83
2018-04-11T11:05:09.434Z,17.92
2018-04-11T11:06:19.785Z,17.89
2018-04-11T11:07:30.058Z,17.75
2018-04-11T11:08:40.236Z,17.58
2018-04-11T11:09:50.541Z,17.65
2018-04-11T11:11:00.744Z,17.6
2018-04-11T11:12:10.905Z,17.49
2018-04-11T11:13:21.079Z,17.39
2018-04-11T11:14:31.279Z,17.43
2018-04-11T11:15:41.461Z,17.38
2018-04-11T11:16:51.773Z,17.36
2018-04-11T11:18:01.957Z,17.47
2018-04-11T11:19:12.119Z,17.45
2018-04-11T11:20:22.306Z,17.47
2018-04-11T11:21:32.531Z,17.49
2018-04-11T11:22:42.731Z,17.43
2018-04-11T11:23:52.946Z,17.31
2018-04-11T11:25:03.232Z,17.3
2018-04-11T11:26:13.470Z,17.35
2018-04-11T11:27:23.764Z,17.28
2018-04-11T11:28:33.915Z,17.28
2018-04-11T11:29:43.800Z,17.24
2018-04-11T11:30:53.995Z,17.24
2018-04-11T11:32:04.166Z,17.3
2018-04-11T11:33:14.344Z,17.46
2018-04-11T11:34:24.623Z,17.46
2018-04-11T11:35:34.802Z,17.42
2018-04-11T11:36:44.973Z,17.45
2018-04-11T11:37:55.176Z,17.49
2018-04-11T11:39:05.359Z,17.49
2018-04-11T11:40:15.527Z,17.54
2018-04-11T11:41:25.708Z,17.55
2018-04-11T11:42:35.863Z,17.67
2018-04-11T11:43:46.054Z,17.89
2018-04-11T11:44:56.238Z,17.98
2018-04-11T11:46:06.049Z,18
2018-04-11T11:47:16.229Z,17.97
2018-04-11T11:48:26.435Z,17.92
2018-04-11T11:49:36.671Z,17.89
2018-04-11T11:50:46.896Z,17.86
2018-04-11T11:51:57.092Z,17.86
2018-04-11T11:53:07.315Z,17.86
2018-04-11T11:54:17.506Z,17.86
2018-04-11T11:55:27.693Z,17.79
2018-04-11T11:56:37.873Z,17.87
2018-04-11T11:57:48.043Z,17.95
2018-04-11T11:58:58.348Z,17.92
2018-04-11T12:00:08.516Z,17.98
2018-04-11T12:01:18.688Z,18.02
2018-04-11T12:02:28.924Z,18.1
2018-04-11T12:03:39.111Z,18.12
2018-04-11T12:04:49.316Z,18.1
2018-04-11T12:05:59.499Z,17.94
2018-04-11T12:07:09.659Z,17.92
2018-04-11T12:08:19.884Z,17.91
2018-04-11T12:09:30.118Z,18.01
2018-04-11T12:10:40.373Z,18.3
2018-04-11T12:11:50.577Z,18.46
2018-04-11T12:13:00.245Z,18.88
2018-04-11T12:14:10.530Z,18.94
2018-04-11T12:15:21.017Z,19.13
2018-04-11T12:16:31.239Z,19.13
2018-04-11T12:17:41.191Z,19.31
2018-04-11T12:18:51.473Z,19.25
2018-04-11T12:20:01.731Z,19.27
2018-04-11T12:21:11.986Z,19.3
2018-04-11T12:22:22.184Z,19.21
2018-04-11T12:23:32.409Z,19.18
2018-04-11T12:24:42.643Z,19.13
2018-04-11T12:25:53.782Z,19.23
2018-04-11T12:27:04.055Z,19.4
2018-04-11T12:28:14.255Z,19.33
2018-04-11T12:29:24.431Z,19.25
2018-04-11T12:30:34.691Z,19.27
2018-04-11T12:31:44.933Z,19.28
2018-04-11T12:32:55.080Z,19.28
2018-04-11T12:34:05.280Z,19.24
2018-04-11T12:37:55.946Z,19.15
2018-04-11T12:39:06.089Z,19.06
2018-04-11T12:40:16.369Z,18.95
2018-04-11T12:41:26.621Z,18.8
2018-04-11T12:42:36.835Z,18.62
2018-04-11T12:43:46.795Z,18.52
2018-04-11T12:44:56.971Z,18.38
2018-04-11T12:46:07.475Z,18.32
2018-04-11T12:47:17.704Z,18.28
2018-04-11T12:48:27.900Z,18.09
2018-04-11T12:49:38.060Z,18.05
2018-04-11T12:50:48.330Z,18
2018-04-11T12:51:58.606Z,17.98
2018-04-11T12:53:08.786Z,18.01
2018-04-11T12:54:18.546Z,17.95
2018-04-11T12:55:28.831Z,17.94
2018-04-11T12:56:39.088Z,17.97
2018-04-11T12:57:49.274Z,17.91
2018-04-11T12:58:59.469Z,17.92
2018-04-11T13:00:09.663Z,17.91
2018-04-11T13:01:19.584Z,18
2018-04-11T13:02:29.258Z,18.05
2018-04-11T13:03:39.433Z,18.17
2018-04-11T13:04:49.599Z,18.34
2018-04-11T13:05:59.891Z,18.41
2018-04-11T13:07:10.131Z,18.69
2018-04-11T13:08:20.303Z,19.02
2018-04-11T13:09:30.560Z,19.18
2018-04-11T13:11:13.273Z,19.25
2018-04-11T13:12:23.472Z,19.28
2018-04-11T13:13:33.723Z,19.3
2018-04-11T13:14:43.948Z,19.37
2018-04-11T13:15:54.146Z,19.45
2018-04-11T13:17:04.325Z,19.49
2018-04-11T13:18:15.486Z,19.43
2018-04-11T13:19:25.922Z,19.37
2018-04-11T13:20:36.159Z,19.28
2018-04-11T13:21:46.379Z,19.12
2018-04-11T13:22:56.561Z,19
2018-04-11T13:24:06.848Z,18.69
2018-04-11T13:25:16.847Z,18.59
2018-04-11T13:26:27.100Z,18.42
2018-04-11T13:27:37.414Z,18.5
2018-04-11T13:28:47.720Z,18.46
2018-04-11T13:29:57.531Z,18.5
2018-04-11T13:31:07.730Z,18.38
2018-04-11T13:32:17.916Z,18.47
2018-04-11T13:33:28.118Z,18.41
2018-04-11T13:34:38.065Z,18.4
2018-04-11T13:35:48.244Z,18.34
2018-04-11T13:36:58.409Z,18.55
2018-04-11T13:38:08.632Z,18.65
2018-04-11T13:39:18.813Z,18.63
2018-04-11T13:40:29.015Z,18.71
2018-04-11T13:41:39.264Z,18.73
2018-04-11T13:42:49.478Z,18.86
2018-04-11T13:43:59.646Z,18.84
2018-04-11T13:45:09.847Z,18.84
2018-04-11T13:46:20.057Z,18.88
2018-04-11T13:47:30.401Z,18.91
2018-04-11T13:48:40.644Z,18.98
2018-04-11T13:49:50.837Z,18.98
2018-04-11T13:51:01.013Z,19
2018-04-11T13:52:11.185Z,19.12
2018-04-11T13:53:21.116Z,19.16
2018-04-11T13:54:31.275Z,19.15
2018-04-11T13:55:41.474Z,19.15
2018-04-11T13:56:51.665Z,19.09
2018-04-11T13:58:01.889Z,19.12
2018-04-11T13:59:12.091Z,18.87
2018-04-11T14:00:22.034Z,18.73
2018-04-11T14:01:32.224Z,18.44
2018-04-11T14:02:42.425Z,18.35
2018-04-11T14:03:52.613Z,18.32
2018-04-11T14:05:02.786Z,18.15
2018-04-11T14:06:13.001Z,18.01
2018-04-11T14:07:23.179Z,17.95
2018-04-11T14:08:33.097Z,17.76
2018-04-11T14:09:43.294Z,17.62
2018-04-11T14:10:53.336Z,17.49
2018-04-11T14:12:03.557Z,17.28
2018-04-11T14:13:13.734Z,17.17
2018-04-11T14:14:24.092Z,17.06
2018-04-11T14:15:34.451Z,17.06
2018-04-11T14:16:44.689Z,16.98
2018-04-11T14:17:54.880Z,16.94
2018-04-11T14:19:05.076Z,16.94
2018-04-11T14:20:15.270Z,16.91
2018-04-11T14:21:25.448Z,16.87
2018-04-11T14:22:35.619Z,16.89
2018-04-11T14:23:45.820Z,16.79
2018-04-11T14:24:55.992Z,16.82
2018-04-11T14:26:06.160Z,16.76
2018-04-11T14:27:16.452Z,16.69
2018-04-11T14:28:26.618Z,16.71
2018-04-11T14:29:36.931Z,16.82
2018-04-11T14:30:47.152Z,16.72
2018-04-11T14:31:57.163Z,16.76
2018-04-11T14:33:07.380Z,16.66
2018-04-11T14:34:17.650Z,16.66
2018-04-11T14:35:27.971Z,16.69
2018-04-11T14:36:38.176Z,16.68
2018-04-11T14:37:48.123Z,16.59
2018-04-11T14:38:58.316Z,16.62
2018-04-11T14:40:08.508Z,16.69
2018-04-11T14:41:18.723Z,16.53
2018-04-11T14:42:28.914Z,16.65
2018-04-11T14:43:39.111Z,16.66
2018-04-11T14:44:49.303Z,16.66
2018-04-11T14:45:59.501Z,16.57
2018-04-11T14:47:09.711Z,16.57
2018-04-11T14:48:19.937Z,16.57
2018-04-11T14:49:30.113Z,16.69
2018-04-11T14:50:40.342Z,16.57
2018-04-11T14:51:50.497Z,16.66
2018-04-11T14:53:00.690Z,16.71
2018-04-11T14:54:11.234Z,16.69
2018-04-11T14:55:21.740Z,16.69
2018-04-11T14:56:31.959Z,16.75
2018-04-11T14:57:42.114Z,16.76
2018-04-11T14:58:52.320Z,16.68
2018-04-11T15:00:02.737Z,16.72
2018-04-11T15:01:13.066Z,16.66
2018-04-11T15:02:23.292Z,16.71
2018-04-11T15:03:33.500Z,16.62
2018-04-11T15:04:43.502Z,16.59
2018-04-11T15:05:53.729Z,16.51
2018-04-11T15:07:03.938Z,16.59
2018-04-11T15:08:14.153Z,16.47
2018-04-11T15:09:24.107Z,16.46
2018-04-11T15:10:34.031Z,16.46
2018-04-11T15:11:45.169Z,16.43
2018-04-11T15:12:55.261Z,16.38
2018-04-11T15:14:05.499Z,16.31
2018-04-11T15:15:15.668Z,16.42
2018-04-11T15:16:25.865Z,16.39
2018-04-11T15:17:35.852Z,16.49
2018-04-11T15:18:46.077Z,16.49
2018-04-11T15:19:55.997Z,16.42
2018-04-11T15:21:06.176Z,16.39
2018-04-11T15:22:16.425Z,16.42
2018-04-11T15:23:26.632Z,16.43
2018-04-11T15:24:36.818Z,16.43
2018-04-11T15:25:47.017Z,16.51
2018-04-11T15:26:57.213Z,16.47
2018-04-11T15:28:07.465Z,16.39